Latest METARs, TAFs and NOTAMs for LFPB


---------------------------------------------------------------------------
	(OBSERVATIONS)
LFPB 160700Z AUTO VRB02KT CAVOK 21/13 Q1013 NOSIG=
LFPB 160630Z AUTO 03004KT 330V080 CAVOK 20/12 Q1013 NOSIG=
LFPB 160600Z AUTO 02004KT 330V060 CAVOK 19/12 Q1013 NOSIG=
LFPB 160530Z AUTO VRB03KT CAVOK 19/12 Q1013 NOSIG=
LFPB 160500Z AUTO 35004KT 320V030 CAVOK 19/12 Q1013 NOSIG=
LFPB 160430Z AUTO 34005KT 300V020 CAVOK 19/12 Q1013 NOSIG=
---------------------------------------------------------------------------
	(FC)
Sorry, FC For LFPB Not Found
---------------------------------------------------------------------------
	(TERMINAL AREA FORECAST)
LFPB 160500Z 1606/1706 VRB04KT CAVOK
    BECMG 1609/1611 34006KT
    TEMPO 1609/1619 FEW070TCU PROB30
    TEMPO 1614/1618 VRB12G25KT 3000 -TSRA SCT065CB=
---------------------------------------------------------------------------
	(NOTAMS)


LFPB A2480/18 TRIGGER NOTAM - PERM AIRAC AIP AMDT 08/18 WEF 19
    JUL 2018. DESCRIPTION OF HOLDING AREA AB ADDED. 19 JUL 00:00
    2018 UNTIL 01 AUG 23:59 2018. CREATED: 07 JUN 00:01 2018

LFPB A2996/18 APRON I CLOSED. 29 JUN 10:22 2018 UNTIL 31 AUG
    23:59 2018. CREATED: 29 JUN 10:44 2018

LFPB A2997/18 APRON J EAST PART CLOSED. 29 JUN 10:23 2018 UNTIL
    31 AUG 23:59 2018. CREATED: 29 JUN 10:44 2018

LFPB A2998/18 TWY W19 CLOSED. 29 JUN 13:00 2018 UNTIL 31 AUG
    23:59 2018. CREATED: 29 JUN 13:00 2018

LFPB A3060/18 TRIGGER NOTAM - PERM AIRAC AIP AMDT 09/18 WEF 16
    AUG 2018. SID PTV 2J-2M-2C-2F MODIFIED. 16 AUG 00:00 2018
    UNTIL 29 AUG 23:59 2018. CREATED: 05 JUL 00:01 2018

LFPB A3220/18 TWY U1 AND U2 CLOSED. 0530-1500, 19 JUL 05:30 2018
    UNTIL 20 JUL 15:00 2018. CREATED: 12 JUL 14:55 2018

LFPB A3231/18 TWY W1 CLOSED BETWEEN TWY W14 AND W15. 23 JUL 05:00
    2018 UNTIL 23 JUL 14:00 2018. CREATED: 13 JUL 13:27 2018

LFPB P1236/18 MOBILE CRANE OPR RDL040/2.7NM ARP LFPB PSN : 490015,07N
    TO 490018,24N 0022900,93E TO 0022914,65E ELEV 431FT HEIGHT
    111FT DAY LIGHTED. MON-FRI 0400-1800, 02 JUL 04:00 2018 UNTIL
    26 OCT 18:00 2018. CREATED: 13 JUN 10:11 2018

LFPB P1237/18 MOBILE CRANE OPR RDL040/2.7NM ARP LFPB PSN : 490015,07N
    TO 490018,24N 0022900,93E TO 0022914,65E ELEV 431FT HEIGHT
    111FT DAY LIGHTED. MON-FRI 0500-1900, 29 OCT 05:00 2018 UNTIL
    29 MAR 19:00 2019. CREATED: 13 JUN 10:12 2018

LFPB V0430/18 [US DOD PROCEDURAL NOTAM] STANDARD INSTRUMENT ARRIVAL
    (STAR) AMENDMENT ENAME (HIGH/LOW VOL 4) RNAV (GNSS-DME/DME)
    STAR RWY 07 (KOLIV 4E, PEXIR 7E, VELOL 7E) ALTITUDE AT KOLIV
    CHANGED TO AT FL70 FOR KOLIV 4E TRANSITION AND AT OR BELOW
    FL70 FOR PEXIR 7E AND VELOL 7E TRANSITIONS. 02 JUL 15:23
    2018 UNTIL 15 AUG 23:59 2018. CREATED: 02 JUL 15:23 2018

LFPB V0431/18 [US DOD PROCEDURAL NOTAM] STANDARD INSTRUMENT ARRIVAL
    (STAR) CHANGED ENAME (HIGH/LOW VOL 4) RNAV1 STAR RWY 07 (DJL
    8E, EPL 8E, MOU 8E, OKABO 4E, PIBAT 8E, RLP 8E, TRO 8E) SPEED
    RESTRICTION MAX 220 KIAS AT PB505 REMOVED. 02 JUL 15:25 2018
    UNTIL 15 AUG 23:59 2018. CREATED: 02 JUL 15:25 2018

---------------------------------------------------------------------------